sensor_id;sensor_type;location;lat;lon;timestamp;pressure;altitude;pressure_sealevel;temperature;humidity
73700;BME280;62005;50.082;8.988;2023-06-19T05:53:29;100118.34;;;25.75;51.72
73700;BME280;62005;50.082;8.988;2023-06-19T05:55:56;100116.66;;;26.08;50.63
73700;BME280;62005;50.082;8.988;2023-06-19T05:58:21;100119.53;;;26.20;50.94
73700;BME280;62005;50.082;8.988;2023-06-19T06:00:49;100118.41;;;26.50;50.77
73700;BME280;62005;50.082;8.988;2023-06-19T06:03:14;100113.91;;;26.74;49.70
73700;BME280;62005;50.082;8.988;2023-06-19T06:05:39;100109.75;;;26.89;49.45
73700;BME280;62005;50.082;8.988;2023-06-19T06:08:05;100119.38;;;27.12;49.04
73700;BME280;62005;50.082;8.988;2023-06-19T06:10:30;100123.31;;;27.32;48.49
73700;BME280;62005;50.082;8.988;2023-06-19T06:12:55;100106.38;;;27.45;48.90
73700;BME280;62005;50.082;8.988;2023-06-19T06:15:21;100111.91;;;27.66;48.75
73700;BME280;62005;50.082;8.988;2023-06-19T06:17:46;100123.75;;;27.75;47.40
73700;BME280;62005;50.082;8.988;2023-06-19T06:20:12;100130.31;;;27.91;47.71
73700;BME280;62005;50.082;8.988;2023-06-19T06:22:40;100131.34;;;27.98;47.50
73700;BME280;62005;50.082;8.988;2023-06-19T06:25:06;100142.59;;;28.02;47.46
73700;BME280;62005;50.082;8.988;2023-06-19T06:27:32;100134.13;;;27.98;46.68
73700;BME280;62005;50.082;8.988;2023-06-19T06:29:57;100133.56;;;27.93;47.75
73700;BME280;62005;50.082;8.988;2023-06-19T06:32:23;100133.00;;;27.99;47.39
73700;BME280;62005;50.082;8.988;2023-06-19T06:34:48;100138.78;;;27.94;47.54
73700;BME280;62005;50.082;8.988;2023-06-19T06:37:13;100130.66;;;28.01;47.25
73700;BME280;62005;50.082;8.988;2023-06-19T06:39:41;100112.81;;;27.90;46.88
73700;BME280;62005;50.082;8.988;2023-06-19T06:42:06;100144.09;;;27.99;47.26
73700;BME280;62005;50.082;8.988;2023-06-19T06:44:31;100112.50;;;27.83;47.52
73700;BME280;62005;50.082;8.988;2023-06-19T06:46:57;100145.72;;;28.00;47.47
73700;BME280;62005;50.082;8.988;2023-06-19T06:49:22;100139.34;;;28.00;47.22
73700;BME280;62005;50.082;8.988;2023-06-19T06:51:48;100153.63;;;28.10;48.03
73700;BME280;62005;50.082;8.988;2023-06-19T06:54:13;100120.63;;;27.88;47.99
73700;BME280;62005;50.082;8.988;2023-06-19T06:56:38;100141.34;;;28.11;47.82
73700;BME280;62005;50.082;8.988;2023-06-19T06:59:04;100138.78;;;28.06;47.60
73700;BME280;62005;50.082;8.988;2023-06-19T07:01:29;100150.03;;;28.10;47.15
73700;BME280;62005;50.082;8.988;2023-06-19T07:03:54;100136.59;;;28.12;47.47
73700;BME280;62005;50.082;8.988;2023-06-19T07:06:20;100148.97;;;28.02;48.60
73700;BME280;62005;50.082;8.988;2023-06-19T07:08:46;100143.84;;;27.92;48.88
73700;BME280;62005;50.082;8.988;2023-06-19T07:11:13;100144.81;;;27.96;47.92
73700;BME280;62005;50.082;8.988;2023-06-19T07:13:38;100150.38;;;28.08;47.97
73700;BME280;62005;50.082;8.988;2023-06-19T07:16:05;100134.41;;;28.17;48.71
73700;BME280;62005;50.082;8.988;2023-06-19T07:18:30;100137.31;;;28.33;47.88
73700;BME280;62005;50.082;8.988;2023-06-19T07:20:55;100133.53;;;28.38;48.27
73700;BME280;62005;50.082;8.988;2023-06-19T07:23:21;100146.06;;;28.56;48.04
73700;BME280;62005;50.082;8.988;2023-06-19T07:25:47;100118.50;;;28.51;48.42
73700;BME280;62005;50.082;8.988;2023-06-19T07:28:12;100158.59;;;28.74;46.71
73700;BME280;62005;50.082;8.988;2023-06-19T07:30:39;100154.63;;;28.75;47.87
73700;BME280;62005;50.082;8.988;2023-06-19T07:33:04;100139.34;;;28.81;46.21
73700;BME280;62005;50.082;8.988;2023-06-19T07:35:30;100142.81;;;28.90;47.39
73700;BME280;62005;50.082;8.988;2023-06-19T07:37:55;100148.13;;;29.07;47.18
73700;BME280;62005;50.082;8.988;2023-06-19T07:40:21;100126.00;;;29.10;46.34
73700;BME280;62005;50.082;8.988;2023-06-19T07:42:46;100136.97;;;29.19;46.37
73700;BME280;62005;50.082;8.988;2023-06-19T07:45:12;100139.72;;;29.31;46.22
73700;BME280;62005;50.082;8.988;2023-06-19T07:47:38;100134.66;;;29.21;45.66
73700;BME280;62005;50.082;8.988;2023-06-19T07:50:04;100136.28;;;29.22;45.55
73700;BME280;62005;50.082;8.988;2023-06-19T07:52:29;100138.63;;;29.20;46.21
73700;BME280;62005;50.082;8.988;2023-06-19T07:54:56;100133.03;;;29.20;45.71
73700;BME280;62005;50.082;8.988;2023-06-19T07:57:22;100131.09;;;29.08;45.75
73700;BME280;62005;50.082;8.988;2023-06-19T07:59:49;100148.94;;;29.19;45.87
73700;BME280;62005;50.082;8.988;2023-06-19T08:02:14;100151.38;;;29.21;46.21
73700;BME280;62005;50.082;8.988;2023-06-19T08:04:40;100153.69;;;29.19;46.56
73700;BME280;62005;50.082;8.988;2023-06-19T08:07:05;100160.19;;;29.23;46.79
73700;BME280;62005;50.082;8.988;2023-06-19T08:09:31;100165.50;;;29.28;45.78
73700;BME280;62005;50.082;8.988;2023-06-19T08:11:59;100157.03;;;29.24;46.59
73700;BME280;62005;50.082;8.988;2023-06-19T08:14:24;100174.09;;;29.35;46.57
73700;BME280;62005;50.082;8.988;2023-06-19T08:16:49;100170.34;;;29.43;46.36
73700;BME280;62005;50.082;8.988;2023-06-19T08:19:15;100174.97;;;29.51;46.15
73700;BME280;62005;50.082;8.988;2023-06-19T08:21:40;100177.50;;;29.68;45.78
73700;BME280;62005;50.082;8.988;2023-06-19T08:24:06;100171.47;;;29.54;45.13
73700;BME280;62005;50.082;8.988;2023-06-19T08:26:31;100173.53;;;29.69;45.32
73700;BME280;62005;50.082;8.988;2023-06-19T08:28:57;100176.78;;;29.71;45.20
73700;BME280;62005;50.082;8.988;2023-06-19T08:31:22;100178.38;;;29.72;44.59
73700;BME280;62005;50.082;8.988;2023-06-19T08:33:53;100184.91;;;29.76;45.57
73700;BME280;62005;50.082;8.988;2023-06-19T08:36:18;100172.41;;;29.86;44.90
73700;BME280;62005;50.082;8.988;2023-06-19T08:38:44;100166.53;;;29.75;44.88
73700;BME280;62005;50.082;8.988;2023-06-19T08:41:12;100181.34;;;29.91;45.65
73700;BME280;62005;50.082;8.988;2023-06-19T08:43:37;100182.25;;;29.95;46.92
73700;BME280;62005;50.082;8.988;2023-06-19T08:46:16;100178.69;;;30.10;46.43
73700;BME280;62005;50.082;8.988;2023-06-19T08:48:43;100175.84;;;30.22;46.53
73700;BME280;62005;50.082;8.988;2023-06-19T08:51:09;100185.75;;;30.35;45.24
73700;BME280;62005;50.082;8.988;2023-06-19T08:53:47;100196.19;;;30.38;44.91
73700;BME280;62005;50.082;8.988;2023-06-19T08:56:13;100194.13;;;30.35;45.56
73700;BME280;62005;50.082;8.988;2023-06-19T08:58:38;100180.53;;;30.49;44.64
73700;BME280;62005;50.082;8.988;2023-06-19T09:01:03;100169.38;;;30.49;44.13
73700;BME280;62005;50.082;8.988;2023-06-19T09:03:29;100178.38;;;30.58;44.58
73700;BME280;62005;50.082;8.988;2023-06-19T09:05:54;100191.69;;;30.49;43.54
73700;BME280;62005;50.082;8.988;2023-06-19T09:08:21;100208.09;;;30.35;43.59
73700;BME280;62005;50.082;8.988;2023-06-19T09:11:02;100206.31;;;30.15;44.15
73700;BME280;62005;50.082;8.988;2023-06-19T09:13:29;100200.19;;;29.82;43.99
73700;BME280;62005;50.082;8.988;2023-06-19T09:18:28;100217.88;;;29.62;45.08
73700;BME280;62005;50.082;8.988;2023-06-19T09:20:54;100215.75;;;29.44;45.11
73700;BME280;62005;50.082;8.988;2023-06-19T09:23:20;100190.59;;;29.16;46.16
73700;BME280;62005;50.082;8.988;2023-06-19T09:25:47;100189.22;;;29.10;45.98
73700;BME280;62005;50.082;8.988;2023-06-19T09:28:19;100215.41;;;29.09;46.67
73700;BME280;62005;50.082;8.988;2023-06-19T09:30:58;100218.91;;;28.94;46.60
73700;BME280;62005;50.082;8.988;2023-06-19T09:33:32;100214.00;;;28.91;46.80
73700;BME280;62005;50.082;8.988;2023-06-19T09:35:59;100200.91;;;28.79;46.87
73700;BME280;62005;50.082;8.988;2023-06-19T09:38:30;100212.59;;;28.73;48.22
73700;BME280;62005;50.082;8.988;2023-06-19T09:40:58;100200.31;;;28.62;47.88
73700;BME280;62005;50.082;8.988;2023-06-19T09:43:39;100194.75;;;28.62;48.78
73700;BME280;62005;50.082;8.988;2023-06-19T09:46:06;100203.38;;;28.81;47.52
73700;BME280;62005;50.082;8.988;2023-06-19T09:48:35;100182.22;;;28.68;48.37
73700;BME280;62005;50.082;8.988;2023-06-19T09:51:12;100195.69;;;28.90;47.92
73700;BME280;62005;50.082;8.988;2023-06-19T09:53:44;100184.78;;;28.97;47.58
73700;BME280;62005;50.082;8.988;2023-06-19T09:56:12;100186.16;;;29.03;47.00
73700;BME280;62005;50.082;8.988;2023-06-19T09:58:39;100192.47;;;29.12;47.03
73700;BME280;62005;50.082;8.988;2023-06-19T10:01:05;100173.41;;;29.14;47.61
73700;BME280;62005;50.082;8.988;2023-06-19T10:03:33;100196.84;;;29.25;48.89
73700;BME280;62005;50.082;8.988;2023-06-19T10:06:00;100196.56;;;29.42;46.74
73700;BME280;62005;50.082;8.988;2023-06-19T10:08:31;100209.47;;;29.47;47.08
73700;BME280;62005;50.082;8.988;2023-06-19T10:10:57;100194.47;;;29.51;46.37
73700;BME280;62005;50.082;8.988;2023-06-19T10:13:34;100210.22;;;29.59;46.02
73700;BME280;62005;50.082;8.988;2023-06-19T10:16:00;100199.31;;;29.54;45.71
73700;BME280;62005;50.082;8.988;2023-06-19T10:18:28;100205.78;;;29.70;48.28
73700;BME280;62005;50.082;8.988;2023-06-19T10:20:59;100198.69;;;29.85;46.56
73700;BME280;62005;50.082;8.988;2023-06-19T10:23:36;100200.78;;;30.03;46.64
73700;BME280;62005;50.082;8.988;2023-06-19T10:26:01;100197.47;;;30.13;45.48
73700;BME280;62005;50.082;8.988;2023-06-19T10:28:33;100195.59;;;30.17;45.37
73700;BME280;62005;50.082;8.988;2023-06-19T10:31:04;100191.06;;;30.25;45.74
73700;BME280;62005;50.082;8.988;2023-06-19T10:33:34;100190.44;;;30.31;44.95
73700;BME280;62005;50.082;8.988;2023-06-19T10:36:01;100180.44;;;30.30;44.65
73700;BME280;62005;50.082;8.988;2023-06-19T10:38:27;100194.13;;;30.35;44.27
73700;BME280;62005;50.082;8.988;2023-06-19T10:40:53;100190.44;;;30.31;44.13
73700;BME280;62005;50.082;8.988;2023-06-19T10:43:20;100181.63;;;30.29;44.19
73700;BME280;62005;50.082;8.988;2023-06-19T10:45:47;100191.25;;;30.32;43.98
73700;BME280;62005;50.082;8.988;2023-06-19T10:48:19;100187.13;;;30.26;44.44
73700;BME280;62005;50.082;8.988;2023-06-19T10:50:44;100167.63;;;30.14;44.32
73700;BME280;62005;50.082;8.988;2023-06-19T10:53:10;100188.81;;;30.30;44.05
73700;BME280;62005;50.082;8.988;2023-06-19T10:55:35;100193.06;;;30.24;44.01
73700;BME280;62005;50.082;8.988;2023-06-19T10:58:00;100188.84;;;30.18;44.63
73700;BME280;62005;50.082;8.988;2023-06-19T11:00:28;100181.66;;;30.17;44.63
73700;BME280;62005;50.082;8.988;2023-06-19T11:02:55;100183.16;;;29.99;43.57
73700;BME280;62005;50.082;8.988;2023-06-19T11:05:21;100182.25;;;29.95;44.06
73700;BME280;62005;50.082;8.988;2023-06-19T11:07:57;100152.69;;;29.79;43.97
73700;BME280;62005;50.082;8.988;2023-06-19T11:10:25;100176.06;;;29.74;43.52
73700;BME280;62005;50.082;8.988;2023-06-19T11:12:56;100165.44;;;29.52;44.23
73700;BME280;62005;50.082;8.988;2023-06-19T11:15:32;100172.88;;;29.48;44.09
73700;BME280;62005;50.082;8.988;2023-06-19T11:17:59;100175.09;;;29.42;44.57
73700;BME280;62005;50.082;8.988;2023-06-19T11:20:25;100167.81;;;29.38;44.92
73700;BME280;62005;50.082;8.988;2023-06-19T11:23:00;100171.06;;;29.40;45.00
73700;BME280;62005;50.082;8.988;2023-06-19T11:25:40;100166.28;;;29.40;45.16
73700;BME280;62005;50.082;8.988;2023-06-19T11:28:15;100170.84;;;29.33;44.60
73700;BME280;62005;50.082;8.988;2023-06-19T11:30:48;100171.75;;;29.37;44.77
73700;BME280;62005;50.082;8.988;2023-06-19T11:33:21;100191.00;;;29.42;45.83
73700;BME280;62005;50.082;8.988;2023-06-19T11:35:50;100178.94;;;29.38;44.71
73700;BME280;62005;50.082;8.988;2023-06-19T11:38:21;100167.13;;;29.29;44.98
73700;BME280;62005;50.082;8.988;2023-06-19T11:40:47;100174.88;;;29.35;44.41
73700;BME280;62005;50.082;8.988;2023-06-19T11:43:26;100167.09;;;29.41;46.53
73700;BME280;62005;50.082;8.988;2023-06-19T11:45:52;100164.78;;;29.43;46.71
73700;BME280;62005;50.082;8.988;2023-06-19T11:48:27;100160.81;;;29.44;46.88
73700;BME280;62005;50.082;8.988;2023-06-19T11:50:53;100161.03;;;29.51;45.41
73700;BME280;62005;50.082;8.988;2023-06-19T11:53:20;100162.44;;;29.45;44.43
73700;BME280;62005;50.082;8.988;2023-06-19T11:55:46;100171.00;;;29.52;44.79
73700;BME280;62005;50.082;8.988;2023-06-19T11:58:11;100158.72;;;29.53;45.77
73700;BME280;62005;50.082;8.988;2023-06-19T12:00:37;100166.81;;;29.58;45.25
73700;BME280;62005;50.082;8.988;2023-06-19T12:03:03;100170.75;;;29.57;44.67
73700;BME280;62005;50.082;8.988;2023-06-19T12:05:28;100157.78;;;29.49;44.56
73700;BME280;62005;50.082;8.988;2023-06-19T12:07:54;100162.88;;;29.47;44.28
73700;BME280;62005;50.082;8.988;2023-06-19T12:10:19;100164.06;;;29.46;44.25
73700;BME280;62005;50.082;8.988;2023-06-19T12:12:45;100157.25;;;29.44;43.61
73700;BME280;62005;50.082;8.988;2023-06-19T12:15:10;100165.69;;;29.47;43.80
73700;BME280;62005;50.082;8.988;2023-06-19T12:17:35;100163.13;;;29.42;43.70
73700;BME280;62005;50.082;8.988;2023-06-19T12:20:02;100176.03;;;29.47;43.99
73700;BME280;62005;50.082;8.988;2023-06-19T12:22:31;100155.97;;;29.41;44.17
73700;BME280;62005;50.082;8.988;2023-06-19T12:24:59;100166.50;;;29.48;44.33
73700;BME280;62005;50.082;8.988;2023-06-19T12:27:24;100163.34;;;29.49;44.22
73700;BME280;62005;50.082;8.988;2023-06-19T12:29:49;100136.47;;;29.29;44.70
73700;BME280;62005;50.082;8.988;2023-06-19T12:32:15;100166.59;;;29.51;45.30
73700;BME280;62005;50.082;8.988;2023-06-19T12:34:40;100151.50;;;29.52;44.39
73700;BME280;62005;50.082;8.988;2023-06-19T12:37:07;100158.91;;;29.60;44.24
73700;BME280;62005;50.082;8.988;2023-06-19T12:39:33;100146.97;;;29.60;44.46
73700;BME280;62005;50.082;8.988;2023-06-19T12:41:59;100156.00;;;29.69;45.79
73700;BME280;62005;50.082;8.988;2023-06-19T12:44:24;100145.06;;;29.76;44.79
73700;BME280;62005;50.082;8.988;2023-06-19T12:46:50;100145.97;;;29.80;43.92
73700;BME280;62005;50.082;8.988;2023-06-19T12:49:15;100147.59;;;29.81;43.91
73700;BME280;62005;50.082;8.988;2023-06-19T12:51:41;100146.06;;;29.83;42.81
73700;BME280;62005;50.082;8.988;2023-06-19T12:54:06;100145.81;;;29.88;43.54
73700;BME280;62005;50.082;8.988;2023-06-19T12:56:31;100151.72;;;29.87;42.54
73700;BME280;62005;50.082;8.988;2023-06-19T12:58:57;100142.22;;;29.88;42.86
73700;BME280;62005;50.082;8.988;2023-06-19T13:01:22;100152.75;;;29.94;42.78
73700;BME280;62005;50.082;8.988;2023-06-19T13:03:47;100139.06;;;29.89;42.90
73700;BME280;62005;50.082;8.988;2023-06-19T13:06:13;100137.63;;;29.95;43.54
73700;BME280;62005;50.082;8.988;2023-06-19T13:08:38;100132.78;;;29.92;43.98
73700;BME280;62005;50.082;8.988;2023-06-19T13:11:03;100159.31;;;30.02;42.50
73700;BME280;62005;50.082;8.988;2023-06-19T13:13:29;100129.53;;;29.90;42.34
73700;BME280;62005;50.082;8.988;2023-06-19T13:15:54;100141.34;;;29.99;43.30
73700;BME280;62005;50.082;8.988;2023-06-19T13:18:19;100128.13;;;29.96;42.33
73700;BME280;62005;50.082;8.988;2023-06-19T13:20:45;100143.41;;;30.02;42.35
73700;BME280;62005;50.082;8.988;2023-06-19T13:23:13;100137.47;;;30.04;41.38
73700;BME280;62005;50.082;8.988;2023-06-19T13:25:39;100131.44;;;30.02;41.38
73700;BME280;62005;50.082;8.988;2023-06-19T13:28:04;100121.09;;;30.02;41.64
73700;BME280;62005;50.082;8.988;2023-06-19T13:30:29;100136.38;;;30.08;42.09
73700;BME280;62005;50.082;8.988;2023-06-19T13:32:55;100136.59;;;30.15;42.36
73700;BME280;62005;50.082;8.988;2023-06-19T13:35:20;100128.47;;;30.10;42.56
73700;BME280;62005;50.082;8.988;2023-06-19T13:37:47;100146.84;;;30.11;41.62
73700;BME280;62005;50.082;8.988;2023-06-19T13:40:12;100146.75;;;30.08;41.26
73700;BME280;62005;50.082;8.988;2023-06-19T13:42:38;100095.69;;;29.76;40.91
73700;BME280;62005;50.082;8.988;2023-06-19T13:45:04;100131.25;;;29.95;41.53
73700;BME280;62005;50.082;8.988;2023-06-19T13:47:30;100134.59;;;30.00;42.29
73700;BME280;62005;50.082;8.988;2023-06-19T13:49:55;100129.94;;;30.04;41.92
73700;BME280;62005;50.082;8.988;2023-06-19T13:52:21;100131.28;;;30.10;42.24
73700;BME280;62005;50.082;8.988;2023-06-19T13:54:46;100117.78;;;30.12;41.59
73700;BME280;62005;50.082;8.988;2023-06-19T13:57:12;100127.50;;;30.18;41.45
73700;BME280;62005;50.082;8.988;2023-06-19T13:59:37;100127.94;;;30.20;42.22
73700;BME280;62005;50.082;8.988;2023-06-19T14:02:02;100121.13;;;30.18;42.60
73700;BME280;62005;50.082;8.988;2023-06-19T14:04:28;100110.34;;;30.16;42.55
73700;BME280;62005;50.082;8.988;2023-06-19T14:06:53;100116.09;;;30.23;42.68
73700;BME280;62005;50.082;8.988;2023-06-19T14:09:20;100109.78;;;30.26;42.47
73700;BME280;62005;50.082;8.988;2023-06-19T14:11:45;100097.75;;;30.22;42.75
73700;BME280;62005;50.082;8.988;2023-06-19T14:14:11;100091.09;;;30.27;42.37
73700;BME280;62005;50.082;8.988;2023-06-19T14:16:36;100079.94;;;30.11;40.77
73700;BME280;62005;50.082;8.988;2023-06-19T14:19:02;100092.19;;;30.22;41.63
73700;BME280;62005;50.082;8.988;2023-06-19T14:21:27;100087.72;;;30.21;41.24
73700;BME280;62005;50.082;8.988;2023-06-19T14:23:52;100090.50;;;30.21;40.71
73700;BME280;62005;50.082;8.988;2023-06-19T14:26:18;100092.41;;;30.17;40.39
73700;BME280;62005;50.082;8.988;2023-06-19T14:28:43;100081.72;;;30.19;41.22
73700;BME280;62005;50.082;8.988;2023-06-19T14:31:09;100071.97;;;30.13;41.87
73700;BME280;62005;50.082;8.988;2023-06-19T14:33:34;100071.19;;;30.13;41.63
73700;BME280;62005;50.082;8.988;2023-06-19T14:36:02;100067.13;;;30.10;41.12
73700;BME280;62005;50.082;8.988;2023-06-19T14:38:28;100075.03;;;30.08;39.83
73700;BME280;62005;50.082;8.988;2023-06-19T14:40:57;100075.75;;;30.05;40.35
73700;BME280;62005;50.082;8.988;2023-06-19T14:43:23;100062.09;;;30.00;40.09
73700;BME280;62005;50.082;8.988;2023-06-19T14:45:49;100075.84;;;30.09;39.86
73700;BME280;62005;50.082;8.988;2023-06-19T14:48:14;100068.59;;;30.04;39.60
73700;BME280;62005;50.082;8.988;2023-06-19T14:50:39;100070.28;;;30.09;40.23
73700;BME280;62005;50.082;8.988;2023-06-19T14:53:05;100071.09;;;30.09;40.99
73700;BME280;62005;50.082;8.988;2023-06-19T14:55:33;100050.22;;;30.03;41.50
73700;BME280;62005;50.082;8.988;2023-06-19T14:57:58;100075.22;;;30.15;41.90
73700;BME280;62005;50.082;8.988;2023-06-19T15:00:24;100060.81;;;30.13;41.27
73700;BME280;62005;50.082;8.988;2023-06-19T15:02:49;100064.34;;;30.10;40.52
73700;BME280;62005;50.082;8.988;2023-06-19T15:05:15;100037.88;;;29.89;40.94
73700;BME280;62005;50.082;8.988;2023-06-19T15:07:40;100065.59;;;29.97;40.80
73700;BME280;62005;50.082;8.988;2023-06-19T15:10:06;100077.41;;;30.06;40.17
73700;BME280;62005;50.082;8.988;2023-06-19T15:12:32;100079.72;;;30.04;40.45
73700;BME280;62005;50.082;8.988;2023-06-19T15:14:59;100060.47;;;29.99;40.75
73700;BME280;62005;50.082;8.988;2023-06-19T15:17:24;100067.66;;;30.00;40.20
73700;BME280;62005;50.082;8.988;2023-06-19T15:19:50;100066.50;;;30.01;40.52
73700;BME280;62005;50.082;8.988;2023-06-19T15:22:15;100063.72;;;30.01;40.39
73700;BME280;62005;50.082;8.988;2023-06-19T15:24:40;100060.47;;;29.99;40.26
73700;BME280;62005;50.082;8.988;2023-06-19T15:27:06;100063.78;;;30.05;40.24
73700;BME280;62005;50.082;8.988;2023-06-19T15:29:31;100059.75;;;30.02;40.47
73700;BME280;62005;50.082;8.988;2023-06-19T15:31:56;100058.22;;;30.05;41.31
73700;BME280;62005;50.082;8.988;2023-06-19T15:34:22;100055.63;;;29.96;40.83
73700;BME280;62005;50.082;8.988;2023-06-19T15:36:47;100063.72;;;30.01;40.86
73700;BME280;62005;50.082;8.988;2023-06-19T15:39:12;100057.34;;;30.01;40.90
73700;BME280;62005;50.082;8.988;2023-06-19T15:41:38;100047.69;;;29.98;40.72
73700;BME280;62005;50.082;8.988;2023-06-19T15:44:03;100047.97;;;29.93;41.32
73700;BME280;62005;50.082;8.988;2023-06-19T15:46:29;100057.97;;;29.94;41.06
73700;BME280;62005;50.082;8.988;2023-06-19T15:48:54;100049.66;;;29.82;40.69
73700;BME280;62005;50.082;8.988;2023-06-19T15:51:20;100047.16;;;29.77;40.54
73700;BME280;62005;50.082;8.988;2023-06-19T15:53:45;100039.03;;;29.72;41.08
73700;BME280;62005;50.082;8.988;2023-06-19T15:56:10;100042.28;;;29.74;41.25
73700;BME280;62005;50.082;8.988;2023-06-19T15:58:36;100041.03;;;29.72;40.96
73700;BME280;62005;50.082;8.988;2023-06-19T16:01:01;100039.97;;;29.76;40.94
73700;BME280;62005;50.082;8.988;2023-06-19T16:03:27;100029.53;;;29.73;40.83
73700;BME280;62005;50.082;8.988;2023-06-19T16:05:55;100034.38;;;29.76;41.34
73700;BME280;62005;50.082;8.988;2023-06-19T16:08:21;100031.88;;;29.71;40.50
73700;BME280;62005;50.082;8.988;2023-06-19T16:10:48;100027.91;;;29.72;40.50
73700;BME280;62005;50.082;8.988;2023-06-19T16:13:14;100026.56;;;29.66;40.53
73700;BME280;62005;50.082;8.988;2023-06-19T16:15:41;100024.22;;;29.68;40.68
73700;BME280;62005;50.082;8.988;2023-06-19T16:18:06;99992.97;;;29.47;40.34
73700;BME280;62005;50.082;8.988;2023-06-19T16:20:32;100028.38;;;29.62;41.22
73700;BME280;62005;50.082;8.988;2023-06-19T16:22:57;99999.44;;;29.51;41.72
73700;BME280;62005;50.082;8.988;2023-06-19T16:25:23;100008.34;;;29.57;41.87
73700;BME280;62005;50.082;8.988;2023-06-19T16:27:49;100011.66;;;29.62;41.88
73700;BME280;62005;50.082;8.988;2023-06-19T16:30:14;100007.75;;;29.63;40.84
73700;BME280;62005;50.082;8.988;2023-06-19T16:32:40;100002.88;;;29.60;41.35
73700;BME280;62005;50.082;8.988;2023-06-19T16:35:05;99999.63;;;29.58;41.66
73700;BME280;62005;50.082;8.988;2023-06-19T16:37:31;99989.03;;;29.48;42.87
73700;BME280;62005;50.082;8.988;2023-06-19T16:39:56;100008.34;;;29.57;41.49
73700;BME280;62005;50.082;8.988;2023-06-19T16:42:21;100011.50;;;29.55;40.86
73700;BME280;62005;50.082;8.988;2023-06-19T16:44:48;99999.44;;;29.51;40.66
73700;BME280;62005;50.082;8.988;2023-06-19T16:47:13;100003.16;;;29.55;40.64
73700;BME280;62005;50.082;8.988;2023-06-19T16:49:39;100011.94;;;29.57;40.85
73700;BME280;62005;50.082;8.988;2023-06-19T16:52:04;100009.06;;;29.54;41.90
73700;BME280;62005;50.082;8.988;2023-06-19T16:54:30;100011.50;;;29.55;41.71
73700;BME280;62005;50.082;8.988;2023-06-19T16:56:55;100013.84;;;29.53;40.49
73700;BME280;62005;50.082;8.988;2023-06-19T16:59:20;100008.06;;;29.46;40.89
73700;BME280;62005;50.082;8.988;2023-06-19T17:01:46;100004.81;;;29.44;41.22
73700;BME280;62005;50.082;8.988;2023-06-19T17:04:11;99986.28;;;29.36;40.87
73700;BME280;62005;50.082;8.988;2023-06-19T17:06:37;100017.59;;;29.45;40.60
73700;BME280;62005;50.082;8.988;2023-06-19T17:09:02;100007.84;;;29.39;40.65
73700;BME280;62005;50.082;8.988;2023-06-19T17:11:28;100010.19;;;29.37;40.60
73700;BME280;62005;50.082;8.988;2023-06-19T17:13:53;100027.81;;;29.41;40.80
73700;BME280;62005;50.082;8.988;2023-06-19T17:16:19;100027.72;;;29.37;41.33
73700;BME280;62005;50.082;8.988;2023-06-19T17:18:44;100024.47;;;29.35;41.92
73700;BME280;62005;50.082;8.988;2023-06-19T17:21:10;100018.00;;;29.31;41.44
73700;BME280;62005;50.082;8.988;2023-06-19T17:23:35;100006.78;;;29.28;41.31
73700;BME280;62005;50.082;8.988;2023-06-19T17:26:00;100034.81;;;29.35;41.12
73700;BME280;62005;50.082;8.988;2023-06-19T17:28:26;100024.41;;;29.32;41.52
73700;BME280;62005;50.082;8.988;2023-06-19T17:30:51;100027.63;;;29.34;41.37
73700;BME280;62005;50.082;8.988;2023-06-19T17:33:16;100028.31;;;29.31;41.07
73700;BME280;62005;50.082;8.988;2023-06-19T17:35:42;100025.09;;;29.29;42.14
73700;BME280;62005;50.082;8.988;2023-06-19T17:38:08;100025.44;;;29.27;41.76
73700;BME280;62005;50.082;8.988;2023-06-19T17:40:33;100026.50;;;29.23;41.59
73700;BME280;62005;50.082;8.988;2023-06-19T17:42:59;100037.66;;;29.23;42.10
73700;BME280;62005;50.082;8.988;2023-06-19T17:45:24;100031.16;;;29.19;41.93
73700;BME280;62005;50.082;8.988;2023-06-19T17:47:49;100027.94;;;29.17;41.72
73700;BME280;62005;50.082;8.988;2023-06-19T17:50:15;100023.06;;;29.14;41.93
73700;BME280;62005;50.082;8.988;2023-06-19T17:52:40;100028.63;;;29.14;42.09
73700;BME280;62005;50.082;8.988;2023-06-19T17:55:07;100034.44;;;29.09;41.88
73700;BME280;62005;50.082;8.988;2023-06-19T17:57:32;100026.78;;;29.06;41.65
73700;BME280;62005;50.082;8.988;2023-06-19T17:59:58;100026.78;;;29.06;41.86
73700;BME280;62005;50.082;8.988;2023-06-19T18:02:23;100024.69;;;29.03;45.84
73700;BME280;62005;50.082;8.988;2023-06-19T18:04:49;100032.16;;;28.99;46.08
73700;BME280;62005;50.082;8.988;2023-06-19T18:07:15;100013.59;;;28.91;46.51
73700;BME280;62005;50.082;8.988;2023-06-19T18:09:42;100013.59;;;28.91;46.09
73700;BME280;62005;50.082;8.988;2023-06-19T18:12:11;100019.63;;;28.93;45.78
73700;BME280;62005;50.082;8.988;2023-06-19T18:14:37;100015.03;;;28.85;46.37
73700;BME280;62005;50.082;8.988;2023-06-19T18:17:02;100022.19;;;28.86;46.19
73700;BME280;62005;50.082;8.988;2023-06-19T18:19:29;100021.28;;;28.82;46.45
73700;BME280;62005;50.082;8.988;2023-06-19T18:21:55;100024.78;;;28.79;46.29
73700;BME280;62005;50.082;8.988;2023-06-19T18:24:20;100022.72;;;28.76;46.87
73700;BME280;62005;50.082;8.988;2023-06-19T18:26:45;100025.28;;;28.69;46.56
73700;BME280;62005;50.082;8.988;2023-06-19T18:29:11;100010.69;;;28.60;46.01
73700;BME280;62005;50.082;8.988;2023-06-19T18:31:36;100022.16;;;28.58;45.99
73700;BME280;62005;50.082;8.988;2023-06-19T18:34:02;100019.84;;;28.60;45.75
73700;BME280;62005;50.082;8.988;2023-06-19T18:36:27;100019.72;;;28.57;45.69
73700;BME280;62005;50.082;8.988;2023-06-19T18:38:52;100026.09;;;28.57;45.26
73700;BME280;62005;50.082;8.988;2023-06-19T18:41:18;100019.50;;;28.50;45.74